createdAt,value
2018-12-07T00:01:00.681Z,99.20
2018-12-07T00:03:30.055Z,99.20
2018-12-07T00:05:59.350Z,99.10
2018-12-07T00:08:28.766Z,99.10
2018-12-07T00:10:58.139Z,99.20
2018-12-07T00:13:27.328Z,99.30
2018-12-07T00:15:56.633Z,99.10
2018-12-07T00:18:25.871Z,99.20
2018-12-07T00:20:55.185Z,99.20
2018-12-07T00:23:24.771Z,99.30
2018-12-07T00:25:54.074Z,99.30
2018-12-07T00:28:23.356Z,99.40
2018-12-07T00:30:52.550Z,99.40
2018-12-07T00:33:24.864Z,99.40
2018-12-07T00:35:54.075Z,99.40
2018-12-07T00:38:25.551Z,99.40
2018-12-07T00:40:54.802Z,99.40
2018-12-07T00:43:24.100Z,99.40
2018-12-07T00:45:53.347Z,99.30
2018-12-07T00:48:25.236Z,99.40
2018-12-07T00:50:54.475Z,99.30
2018-12-07T00:53:23.795Z,99.30
2018-12-07T00:55:53.245Z,99.20
2018-12-07T00:58:22.357Z,99.20
2018-12-07T01:00:52.051Z,99.20
2018-12-07T01:03:21.375Z,99.20
2018-12-07T01:05:50.994Z,99.20
2018-12-07T01:08:22.113Z,99.30
2018-12-07T01:10:51.223Z,99.30
2018-12-07T01:13:20.663Z,99.20
2018-12-07T01:15:50.048Z,99.10
2018-12-07T01:18:19.127Z,99.00
2018-12-07T01:20:48.505Z,99.00
2018-12-07T01:23:17.793Z,99.00
2018-12-07T01:25:46.969Z,99.10
2018-12-07T01:28:16.268Z,99.10
2018-12-07T01:30:45.447Z,99.10
2018-12-07T01:33:14.746Z,99.10
2018-12-07T01:35:44.099Z,99.10
2018-12-07T01:38:13.299Z,99.20
2018-12-07T01:40:42.880Z,99.30
2018-12-07T01:43:14.309Z,99.30
2018-12-07T01:45:43.936Z,99.20
2018-12-07T01:48:13.043Z,99.10
2018-12-07T01:50:42.278Z,99.20
2018-12-07T01:53:11.475Z,99.10
2018-12-07T01:55:40.718Z,99.10
2018-12-07T01:58:10.586Z,99.10
2018-12-07T02:00:40.051Z,99.00
2018-12-07T02:03:09.387Z,99.00
2018-12-07T02:05:38.910Z,98.90
2018-12-07T02:08:08.082Z,98.80
2018-12-07T02:10:37.241Z,98.80
2018-12-07T02:13:06.351Z,98.70
2018-12-07T02:15:35.538Z,98.70
2018-12-07T02:18:04.750Z,98.60
2018-12-07T02:20:34.238Z,98.50
2018-12-07T02:23:03.467Z,98.30
2018-12-07T02:25:32.627Z,98.10
2018-12-07T02:28:02.947Z,98.10
2018-12-07T02:30:32.525Z,98.10
2018-12-07T02:33:01.816Z,98.10
2018-12-07T02:35:31.037Z,98.10
2018-12-07T02:38:00.275Z,98.00
2018-12-07T02:40:29.345Z,98.10
2018-12-07T02:42:58.649Z,98.10
2018-12-07T02:45:27.924Z,98.10
2018-12-07T02:47:57.164Z,98.10
2018-12-07T02:50:26.500Z,98.00
2018-12-07T02:52:56.740Z,98.00
2018-12-07T02:55:26.007Z,98.00
2018-12-07T02:57:55.245Z,97.90
2018-12-07T03:00:24.920Z,98.00
2018-12-07T03:02:53.869Z,98.00
2018-12-07T03:05:23.334Z,98.10
2018-12-07T03:07:52.366Z,98.10
2018-12-07T03:10:21.741Z,98.10
2018-12-07T03:12:51.323Z,98.20
2018-12-07T03:15:20.583Z,98.00
2018-12-07T03:17:49.730Z,98.00
2018-12-07T03:20:18.848Z,97.90
2018-12-07T03:22:48.265Z,97.80
2018-12-07T03:25:17.394Z,97.80
2018-12-07T03:27:46.633Z,97.70
2018-12-07T03:30:15.816Z,97.60
2018-12-07T03:32:45.090Z,97.50
2018-12-07T03:35:14.495Z,97.40
2018-12-07T03:37:43.804Z,97.40
2018-12-07T03:40:12.911Z,97.30
2018-12-07T03:42:42.149Z,97.40
2018-12-07T03:45:11.435Z,97.30
2018-12-07T03:47:40.734Z,97.30
2018-12-07T03:50:09.958Z,97.20
2018-12-07T03:52:38.948Z,97.30
2018-12-07T03:55:08.179Z,97.30
2018-12-07T03:57:37.480Z,97.30
2018-12-07T04:00:07.008Z,97.30
2018-12-07T04:02:36.470Z,97.30
2018-12-07T04:05:06.172Z,97.40
2018-12-07T04:07:35.435Z,97.10
2018-12-07T04:10:05.254Z,97.20
2018-12-07T04:12:34.657Z,97.30
2018-12-07T04:15:04.334Z,97.40
2018-12-07T04:17:33.989Z,97.50
2018-12-07T04:20:03.773Z,97.50
2018-12-07T04:22:33.033Z,97.60
2018-12-07T04:25:02.284Z,97.70
2018-12-07T04:27:31.789Z,98.10
2018-12-07T04:30:11.992Z,97.80
2018-12-07T04:32:41.199Z,97.80
2018-12-07T04:35:10.266Z,97.90
2018-12-07T04:37:39.388Z,97.90
2018-12-07T04:40:08.858Z,98.00
2018-12-07T04:42:38.672Z,98.00
2018-12-07T04:45:08.260Z,97.90
2018-12-07T04:47:37.556Z,97.90
2018-12-07T04:50:06.965Z,98.00
2018-12-07T04:52:36.586Z,97.80
2018-12-07T04:55:06.448Z,97.80
2018-12-07T04:57:35.522Z,97.70
2018-12-07T05:00:06.355Z,97.80
2018-12-07T05:02:36.158Z,97.80
2018-12-07T05:05:05.642Z,97.70
2018-12-07T05:07:34.792Z,97.60
2018-12-07T05:10:04.857Z,97.60
2018-12-07T05:12:34.086Z,97.40
2018-12-07T05:15:03.436Z,97.30
2018-12-07T05:17:33.011Z,97.20
2018-12-07T05:20:02.190Z,97.00
2018-12-07T05:22:31.440Z,97.00
2018-12-07T05:25:01.056Z,96.90
2018-12-07T05:27:30.435Z,96.80
2018-12-07T05:29:59.758Z,96.90
2018-12-07T05:32:29.374Z,96.80
2018-12-07T05:34:58.539Z,96.90
2018-12-07T05:37:27.932Z,96.90
2018-12-07T05:39:57.668Z,97.10
2018-12-07T05:42:26.938Z,97.10
2018-12-07T05:44:56.599Z,97.10
2018-12-07T05:47:26.097Z,97.10
2018-12-07T05:49:55.262Z,97.00
2018-12-07T05:52:24.615Z,97.10
2018-12-07T05:54:53.923Z,97.00
2018-12-07T05:57:23.480Z,97.10
2018-12-07T05:59:52.744Z,97.10
2018-12-07T06:02:22.353Z,97.20
2018-12-07T06:04:51.779Z,97.20
2018-12-07T06:07:21.082Z,97.30
2018-12-07T06:09:50.877Z,97.30
2018-12-07T06:12:20.067Z,97.20
2018-12-07T06:14:49.315Z,97.10
2018-12-07T06:17:18.553Z,97.20
2018-12-07T06:19:47.707Z,97.30
2018-12-07T06:22:16.955Z,97.30
2018-12-07T06:24:46.033Z,97.10
2018-12-07T06:27:16.404Z,97.10
2018-12-07T06:29:45.634Z,97.10
2018-12-07T06:32:14.896Z,97.10
2018-12-07T06:34:44.500Z,96.90
2018-12-07T06:37:13.863Z,96.80
2018-12-07T06:39:43.177Z,96.50
2018-12-07T06:42:12.414Z,96.40
2018-12-07T06:44:41.617Z,96.10
2018-12-07T06:47:11.380Z,96.20
2018-12-07T06:49:41.087Z,96.00
2018-12-07T06:52:10.802Z,95.70
2018-12-07T06:54:40.346Z,95.50
2018-12-07T06:57:09.666Z,95.50
2018-12-07T06:59:38.765Z,95.50
2018-12-07T07:02:13.905Z,95.00
2018-12-07T07:04:47.214Z,94.80
2018-12-07T07:09:47.970Z,94.10
2018-12-07T07:12:17.682Z,94.00
2018-12-07T07:14:47.084Z,93.60
2018-12-07T07:17:16.223Z,93.50
2018-12-07T07:19:45.538Z,93.30
2018-12-07T07:22:14.661Z,93.20
2018-12-07T07:24:43.559Z,93.10
2018-12-07T07:27:12.999Z,93.00
2018-12-07T07:29:42.669Z,92.90
2018-12-07T07:32:12.463Z,92.90
2018-12-07T07:34:41.563Z,92.70
2018-12-07T07:37:10.935Z,92.80
2018-12-07T07:39:40.141Z,93.00
2018-12-07T07:42:09.834Z,92.80
2018-12-07T07:44:39.299Z,93.10
2018-12-07T07:47:08.534Z,93.30
2018-12-07T07:49:37.848Z,93.30
2018-12-07T07:52:07.132Z,93.20
2018-12-07T07:54:36.783Z,93.30
2018-12-07T07:57:06.930Z,93.40
2018-12-07T07:59:36.342Z,93.30
2018-12-07T08:04:50.777Z,93.80
2018-12-07T08:07:20.288Z,94.00
2018-12-07T08:09:49.631Z,94.00
2018-12-07T08:12:19.283Z,94.00
2018-12-07T08:14:48.983Z,94.00
2018-12-07T08:17:18.234Z,93.90
2018-12-07T08:19:47.674Z,93.70
2018-12-07T08:22:17.266Z,93.90
2018-12-07T08:24:47.005Z,93.80
2018-12-07T08:27:16.287Z,93.40
2018-12-07T08:29:45.621Z,93.50
2018-12-07T08:32:15.144Z,93.30
2018-12-07T08:34:45.008Z,93.10
2018-12-07T08:37:14.178Z,92.50
2018-12-07T08:39:43.668Z,92.20
2018-12-07T08:42:13.078Z,91.80
2018-12-07T08:44:42.333Z,91.70
2018-12-07T08:47:11.698Z,91.50
2018-12-07T08:49:46.119Z,91.70
2018-12-07T08:52:15.207Z,91.40
2018-12-07T08:54:44.492Z,91.30
2018-12-07T08:57:14.277Z,91.50
2018-12-07T08:59:43.660Z,91.40
2018-12-07T09:02:13.687Z,91.40
2018-12-07T09:07:35.263Z,91.40
2018-12-07T09:10:04.894Z,91.40
2018-12-07T09:12:34.484Z,91.30
2018-12-07T09:15:03.536Z,91.10
2018-12-07T09:17:33.038Z,91.40
2018-12-07T09:20:02.698Z,90.70
2018-12-07T09:22:32.616Z,90.90
2018-12-07T09:25:02.540Z,90.90
2018-12-07T09:27:32.142Z,90.70
2018-12-07T09:30:01.446Z,90.90
2018-12-07T09:32:30.950Z,90.70
2018-12-07T09:35:10.506Z,90.60
2018-12-07T09:37:39.818Z,90.40
2018-12-07T09:40:09.317Z,90.60
2018-12-07T09:42:38.966Z,90.40
2018-12-07T09:45:08.328Z,90.20
2018-12-07T09:47:38.090Z,90.30
2018-12-07T09:50:08.076Z,90.30
2018-12-07T09:52:37.742Z,90.30
2018-12-07T09:55:07.081Z,90.20
2018-12-07T09:57:36.424Z,90.10
2018-12-07T10:00:06.861Z,90.30
2018-12-07T10:02:36.079Z,90.20
2018-12-07T10:05:05.522Z,89.90
2018-12-07T10:07:35.003Z,89.80
2018-12-07T10:10:04.746Z,90.40
2018-12-07T10:12:34.002Z,89.70
2018-12-07T10:15:03.187Z,88.40
2018-12-07T10:17:32.274Z,89.20
2018-12-07T10:20:01.477Z,89.00
2018-12-07T10:22:30.767Z,89.30
2018-12-07T10:25:00.194Z,89.50
2018-12-07T10:27:29.640Z,88.80
2018-12-07T10:29:58.923Z,88.90
2018-12-07T10:32:28.628Z,88.70
2018-12-07T10:34:58.474Z,88.00
2018-12-07T10:37:27.584Z,88.30
2018-12-07T10:39:57.294Z,88.20
2018-12-07T10:42:26.963Z,87.20
2018-12-07T10:44:56.193Z,86.90
2018-12-07T10:47:25.458Z,87.30
2018-12-07T10:49:54.784Z,87.00
2018-12-07T10:52:24.043Z,86.30
2018-12-07T10:54:53.316Z,85.80
2018-12-07T10:57:22.518Z,86.40
2018-12-07T10:59:51.899Z,86.90
2018-12-07T11:02:26.487Z,86.60
2018-12-07T11:05:00.820Z,87.00
2018-12-07T11:09:39.504Z,87.40
2018-12-07T11:12:14.341Z,87.50
2018-12-07T11:14:48.898Z,86.50
2018-12-07T11:17:23.195Z,86.20
2018-12-07T11:19:59.059Z,86.10
2018-12-07T11:24:36.733Z,86.60
2018-12-07T11:27:11.320Z,86.60
2018-12-07T11:29:45.900Z,87.00
2018-12-07T11:32:18.969Z,85.40
2018-12-07T11:34:52.100Z,85.20
2018-12-07T11:37:21.473Z,85.10
2018-12-07T11:39:50.792Z,83.50
2018-12-07T11:42:20.291Z,84.60
2018-12-07T11:44:49.405Z,84.20
2018-12-07T11:47:29.495Z,83.60
2018-12-07T11:49:58.794Z,83.60
2018-12-07T11:52:28.187Z,82.80
2018-12-07T11:54:57.630Z,82.30
2018-12-07T11:57:27.133Z,81.80
2018-12-07T11:59:56.529Z,81.80
2018-12-07T12:02:26.438Z,81.70
2018-12-07T12:04:55.974Z,82.30
2018-12-07T12:07:25.333Z,81.00
2018-12-07T12:09:54.285Z,81.70
2018-12-07T12:12:24.462Z,81.40
2018-12-07T12:14:53.575Z,82.00
2018-12-07T12:17:23.038Z,81.30
2018-12-07T12:19:52.407Z,82.40
2018-12-07T12:25:11.971Z,83.50
2018-12-07T12:27:41.337Z,83.20
2018-12-07T12:30:10.655Z,83.80
2018-12-07T12:32:39.936Z,83.60
2018-12-07T12:35:09.467Z,83.70
2018-12-07T12:37:38.805Z,84.10
2018-12-07T12:40:07.960Z,84.40
2018-12-07T12:42:37.198Z,84.40
2018-12-07T12:45:06.749Z,85.00
2018-12-07T12:47:36.088Z,85.30
2018-12-07T12:50:07.985Z,85.60
2018-12-07T12:52:38.397Z,86.40
2018-12-07T12:55:07.672Z,86.50
2018-12-07T12:57:37.539Z,87.20
2018-12-07T13:00:09.883Z,87.60
2018-12-07T13:02:39.502Z,88.20
2018-12-07T13:05:08.882Z,88.70
2018-12-07T13:07:38.174Z,90.00
2018-12-07T13:10:07.554Z,90.20
2018-12-07T13:12:36.821Z,90.80
2018-12-07T13:15:06.878Z,90.70
2018-12-07T13:17:36.108Z,90.90
2018-12-07T13:20:06.553Z,91.30
2018-12-07T13:22:35.719Z,91.60
2018-12-07T13:25:05.885Z,91.50
2018-12-07T13:27:35.563Z,91.70
2018-12-07T13:30:25.236Z,91.60
2018-12-07T13:32:54.485Z,91.50
2018-12-07T13:35:24.344Z,91.50
2018-12-07T13:37:54.036Z,91.10
2018-12-07T13:40:23.842Z,90.60
2018-12-07T13:42:53.539Z,90.50
2018-12-07T13:45:22.749Z,90.00
2018-12-07T13:47:52.426Z,89.50
2018-12-07T13:50:27.214Z,89.30
2018-12-07T13:52:57.575Z,86.00
2018-12-07T13:55:26.861Z,81.80
2018-12-07T13:57:56.592Z,79.50
2018-12-07T14:00:37.557Z,78.20
2018-12-07T14:03:07.023Z,77.50
2018-12-07T14:05:36.443Z,79.60
2018-12-07T14:08:06.127Z,81.20
2018-12-07T14:10:35.299Z,82.60
2018-12-07T14:13:04.655Z,84.20
2018-12-07T14:15:34.258Z,84.50
2018-12-07T14:18:03.730Z,85.00
2018-12-07T14:20:32.919Z,85.60
2018-12-07T14:23:02.378Z,85.20
2018-12-07T14:25:31.786Z,85.70
2018-12-07T14:28:01.530Z,86.50
2018-12-07T14:30:31.014Z,85.90
2018-12-07T14:33:08.231Z,85.30
2018-12-07T14:35:39.654Z,85.50
2018-12-07T14:38:08.958Z,86.30
2018-12-07T14:40:38.320Z,85.30
2018-12-07T14:43:35.226Z,85.50
2018-12-07T14:48:38.972Z,86.20
2018-12-07T14:51:08.916Z,87.10
2018-12-07T14:53:38.245Z,87.50
2018-12-07T14:56:07.691Z,87.40
2018-12-07T14:58:37.018Z,87.50
2018-12-07T15:01:06.896Z,87.60
2018-12-07T15:03:36.339Z,86.70
2018-12-07T15:06:05.777Z,86.80
2018-12-07T15:08:35.370Z,86.20
2018-12-07T15:11:05.038Z,86.30
2018-12-07T15:13:34.827Z,86.50
2018-12-07T15:16:04.245Z,86.30
2018-12-07T15:18:33.911Z,86.30
2018-12-07T15:21:03.464Z,86.30
2018-12-07T15:23:37.495Z,85.70
2018-12-07T15:26:09.186Z,86.00
2018-12-07T15:28:38.890Z,85.50
2018-12-07T15:31:08.477Z,85.80
2018-12-07T15:33:38.060Z,84.50
2018-12-07T15:36:12.146Z,84.70
2018-12-07T15:38:43.442Z,84.10
2018-12-07T15:41:13.624Z,83.40
2018-12-07T15:43:42.771Z,83.60
2018-12-07T15:46:12.326Z,83.00
2018-12-07T15:48:41.872Z,83.60
2018-12-07T15:51:11.282Z,82.80
2018-12-07T15:53:40.973Z,83.20
2018-12-07T15:56:12.703Z,82.60
2018-12-07T16:01:18.662Z,83.00
2018-12-07T16:03:49.673Z,81.60
2018-12-07T16:06:25.941Z,82.00
2018-12-07T16:09:04.093Z,82.10
2018-12-07T16:11:34.122Z,82.30
2018-12-07T16:14:03.724Z,82.30
2018-12-07T16:16:37.995Z,82.40
2018-12-07T16:19:09.461Z,82.80
2018-12-07T16:21:38.941Z,82.70
2018-12-07T16:24:08.564Z,82.70
2018-12-07T16:26:43.677Z,82.30
2018-12-07T16:29:15.486Z,82.70
2018-12-07T16:31:44.903Z,83.10
2018-12-07T16:34:39.607Z,83.40
2018-12-07T16:37:17.804Z,82.90
2018-12-07T16:39:49.622Z,82.90
2018-12-07T16:42:19.096Z,83.00
2018-12-07T16:44:48.571Z,82.50
2018-12-07T16:47:20.650Z,82.50
2018-12-07T16:49:50.945Z,82.60
2018-12-07T16:52:20.382Z,82.40
2018-12-07T16:54:49.729Z,82.10
2018-12-07T16:57:27.645Z,82.20
2018-12-07T16:59:57.495Z,82.00
2018-12-07T17:02:27.013Z,82.30
2018-12-07T17:07:44.011Z,83.80
2018-12-07T17:10:19.126Z,84.00
2018-12-07T17:12:48.552Z,84.30
2018-12-07T17:15:18.129Z,85.00
2018-12-07T17:17:47.643Z,84.50
2018-12-07T17:20:19.466Z,84.70
2018-12-07T17:22:48.665Z,84.70
2018-12-07T17:25:18.328Z,84.90
2018-12-07T17:27:48.730Z,85.50
2018-12-07T17:30:25.064Z,84.10
2018-12-07T17:32:54.511Z,83.50
2018-12-07T17:35:23.879Z,83.60
2018-12-07T17:38:02.739Z,82.80
2018-12-07T17:40:31.857Z,82.50
2018-12-07T17:43:01.741Z,82.10
2018-12-07T17:45:31.416Z,82.50
2018-12-07T17:48:08.496Z,82.50
2018-12-07T17:50:37.954Z,82.90
2018-12-07T17:53:09.391Z,83.90
2018-12-07T17:55:38.933Z,84.00
2018-12-07T17:58:08.541Z,84.50
2018-12-07T18:00:37.994Z,84.90
2018-12-07T18:03:07.480Z,86.70
2018-12-07T18:05:37.044Z,87.30
2018-12-07T18:08:09.519Z,87.20
2018-12-07T18:11:29.036Z,88.70
2018-12-07T18:14:02.680Z,89.70
2018-12-07T18:16:32.209Z,89.80
2018-12-07T18:19:01.804Z,90.00
2018-12-07T18:21:31.302Z,90.10
2018-12-07T18:24:01.367Z,90.40
2018-12-07T18:26:30.696Z,90.80
2018-12-07T18:29:05.318Z,91.20
2018-12-07T18:31:35.024Z,91.40
2018-12-07T18:34:05.118Z,91.90
2018-12-07T18:36:34.868Z,91.90
2018-12-07T18:39:13.008Z,92.30
2018-12-07T18:41:56.239Z,92.60
2018-12-07T18:44:25.446Z,93.00
2018-12-07T18:46:54.943Z,92.80
2018-12-07T18:49:28.300Z,93.10
2018-12-07T18:52:09.463Z,93.20
2018-12-07T18:54:39.129Z,93.50
2018-12-07T18:57:08.401Z,93.60
2018-12-07T18:59:37.638Z,94.00
2018-12-07T19:02:06.765Z,94.20
2018-12-07T19:04:39.259Z,93.90
2018-12-07T19:07:08.809Z,94.10
2018-12-07T19:09:38.642Z,94.10
2018-12-07T19:12:07.984Z,94.50
2018-12-07T19:14:37.216Z,94.10
2018-12-07T19:17:06.595Z,94.10
2018-12-07T19:19:35.844Z,94.70
2018-12-07T19:22:08.109Z,94.80
2018-12-07T19:24:37.765Z,94.70
2018-12-07T19:27:07.453Z,94.80
2018-12-07T19:29:45.672Z,95.00
2018-12-07T19:32:21.512Z,94.90
2018-12-07T19:37:23.194Z,95.00
2018-12-07T19:40:30.734Z,94.80
2018-12-07T19:43:00.869Z,94.90
2018-12-07T19:45:30.386Z,95.30
2018-12-07T19:47:59.832Z,95.00
2018-12-07T19:50:37.496Z,95.00
2018-12-07T19:53:10.118Z,95.30
2018-12-07T19:55:39.730Z,95.70
2018-12-07T19:58:09.011Z,96.10
2018-12-07T20:00:43.417Z,96.30
2018-12-07T20:03:21.350Z,96.10
2018-12-07T20:05:51.260Z,95.80
2018-12-07T20:08:20.751Z,96.20
2018-12-07T20:10:53.645Z,95.80
2018-12-07T20:13:23.326Z,96.20
2018-12-07T20:15:52.765Z,96.10
2018-12-07T20:18:22.369Z,97.30
2018-12-07T20:20:52.190Z,95.30
2018-12-07T20:23:21.871Z,98.10
2018-12-07T20:25:51.635Z,96.00
2018-12-07T20:28:21.046Z,95.80
2018-12-07T20:31:03.048Z,96.00
2018-12-07T20:33:32.812Z,96.10
2018-12-07T20:36:02.692Z,96.00
2018-12-07T20:38:32.106Z,97.20
2018-12-07T20:41:03.382Z,96.40
2018-12-07T20:46:05.076Z,96.00
2018-12-07T20:48:34.614Z,96.00
2018-12-07T20:51:04.328Z,95.10
2018-12-07T20:53:33.507Z,94.70
2018-12-07T20:56:03.051Z,95.50
2018-12-07T20:58:32.797Z,95.30
2018-12-07T21:01:09.595Z,94.80
2018-12-07T21:04:05.241Z,94.80
2018-12-07T21:06:50.401Z,94.90
2018-12-07T21:09:32.190Z,94.50
2018-12-07T21:12:08.214Z,94.70
2018-12-07T21:14:41.517Z,94.10
2018-12-07T21:17:20.030Z,94.90
2018-12-07T21:20:23.591Z,94.50
2018-12-07T21:22:53.301Z,94.20
2018-12-07T21:25:22.805Z,94.50
2018-12-07T21:27:52.678Z,94.70
2018-12-07T21:30:37.611Z,94.50
2018-12-07T21:33:06.829Z,94.20
2018-12-07T21:35:54.317Z,93.90
2018-12-07T21:38:23.738Z,94.20
2018-12-07T21:40:53.155Z,93.80
2018-12-07T21:43:28.989Z,93.30
2018-12-07T21:45:58.458Z,93.70
2018-12-07T21:48:30.378Z,93.70
2018-12-07T21:52:14.904Z,93.70
2018-12-07T21:54:44.702Z,93.30
2018-12-07T21:57:14.183Z,92.30
2018-12-07T21:59:43.584Z,92.50
2018-12-07T22:02:23.268Z,92.20
2018-12-07T22:04:53.619Z,92.20
2018-12-07T22:07:23.410Z,91.90
2018-12-07T22:09:53.970Z,92.00
2018-12-07T22:15:30.614Z,92.40
2018-12-07T22:17:59.939Z,92.20
2018-12-07T22:20:28.930Z,92.60
2018-12-07T22:23:19.010Z,92.60
2018-12-07T22:25:48.612Z,92.80
2018-12-07T22:28:18.091Z,92.70
2018-12-07T22:30:47.546Z,92.20
2018-12-07T22:33:16.787Z,92.30
2018-12-07T22:35:46.016Z,91.10
2018-12-07T22:38:15.473Z,91.70
2018-12-07T22:40:44.674Z,92.00
2018-12-07T22:43:14.735Z,91.20
2018-12-07T22:45:44.765Z,91.00
2018-12-07T22:48:14.275Z,91.00
2018-12-07T22:50:43.986Z,90.90
2018-12-07T22:53:14.166Z,91.00
2018-12-07T22:55:43.371Z,90.80
2018-12-07T22:58:12.522Z,90.60
2018-12-07T23:00:44.650Z,90.20
2018-12-07T23:03:13.737Z,90.20
2018-12-07T23:05:43.355Z,90.00
2018-12-07T23:08:12.586Z,90.60
2018-12-07T23:10:41.935Z,90.10
2018-12-07T23:13:25.554Z,89.40
2018-12-07T23:15:51.334Z,89.00
2018-12-07T23:18:20.785Z,88.80
2018-12-07T23:20:49.885Z,89.70
2018-12-07T23:23:28.535Z,90.20
2018-12-07T23:25:58.024Z,88.60
2018-12-07T23:28:27.378Z,89.40
2018-12-07T23:30:56.705Z,90.10
2018-12-07T23:33:29.341Z,90.10
2018-12-07T23:35:58.603Z,90.50
2018-12-07T23:38:28.018Z,90.90
2018-12-07T23:40:57.413Z,90.70
2018-12-07T23:43:35.166Z,90.90
2018-12-07T23:46:04.410Z,91.00
2018-12-07T23:48:33.934Z,90.90
2018-12-07T23:51:03.033Z,91.20
2018-12-07T23:53:35.666Z,91.00
2018-12-07T23:56:05.044Z,91.40
2018-12-07T23:58:34.328Z,91.60
